Market Deeping, United Kingdom
Current Conditions -  °F | °C
As of 9:50 AM on Friday 19 Dec 2014 (Local Time) from EGXT Reporting Station
Clear Clear  
Wind Chill: 37°   Ceiling: Unl
Heat Index: 45°   Visibility: 6mi
Dew Point: 36°   Wind: 16mph
Humidity: 71%   Direction: 250°WSW
Pressure: 29.85"   Gusts: NA
Location:  52.68°N, 0.32°W
Report Text: EGXT 190950Z AUTO 25014KT 9999 NCD 07/02 Q1011
Loading
Personal Weather Stations






























Interactive Weather Map New forecast layout! Learn more

10-Day Weather Forecast

Advertisements
Track Severe Weather on mobile